Sierra Vista Municipal Libby Army Air Field Fort Huachuca Sierra Vista US
ICAO: KFHU
IATA: FHU
Category: Medium
Scheduled Services: Yes

Elevation: 4719 ft
TransAlt. 18000 ft.

Airport Communications:
ASOS:119.675
ATIS:134.75
CTAF:124.95
LIBBY GCA:127.05
GND:121.7
LIBBY OPS:122.95
LIBBY TWR:124.95
UNICOM:122.95

KFHU Zoom In..

If you have problems with the map follow the link
https://www.worldairports.se/pages/airport.php?
ICAO=KFHU

Runways:

(A) RW 03 length 4285 ft width 75 ft
---- / hdg 24

(B) RW 08 length 12001 ft width 150 ft
---- / hdg 77

(C) RW 12 length 5366 ft width 100 ft
---- / hdg 114

(D) RW 21 length 4285 ft width 75 ft
---- / hdg 204

(E) RW 26 length 12001 ft width 150 ft
ILS 109.90 / hdg 257

(F) RW 30 length 5366 ft width 100 ft
---- / hdg 294

Location; KFHU
Day. 23 / Time. 19.11 Zulu
* Altimeter: 30.07
* Temperature: 14° c. 57.2°f.
* Wind from: 280° Speed 12 kn.
Dewpoint: 12° c.
Visibility: 10 Statute Miles.
Clouds: Overcast 5500 ft.
Conditions: Thunderstorm.Conditions: Showers.

KFHU 231911Z 28012KT 10SM TS VCSH OVC055 14/12 A3007 RMK AO2A TSB11 PRESFR SLP135 SH SW-NW-NE


Wind From 280°
Speed 12 kn.

 
 
jpsmedia.com for Web Design worldairports.se 2018   terms of use